Home   Weather   Turkey   Malatya   Past weeks
Flag for Turkey

Past Weather in Malatya, Turkey — Yesterday and Last 2 Weeks

Currently: 90 °F. Sunny. (Weather station: Malatya / Erhac, Turkey). See more current weather

Past Weather in Malatya — Graph

°F

Malatya Temperature Yesterday

Maximum temperature yesterday: 90 °F (at 2:20 pm)
Minimum temperature yesterday: 43 °F (at 5:20 am)
Average temperature yesterday: 66 °F

High & Low Weather Summary for the Past Weeks

 TemperatureHumidityPressure
High90 °F (May 13, 2:20 pm)100% (May 4, 10:50 pm)30.12 "Hg (May 4, 10:50 pm)
Low34 °F (May 10, 5:50 am)9% (May 11, 4:50 pm)29.83 "Hg (May 3, 5:20 pm)
Average65 °F44%29.97 "Hg
* Reported Apr 29 2:20 pm — May 14 2:20 pm, Malatya. Weather by CustomWeather, © 2021

Note: Actual official high and low records may vary slightly from our data, if they occured in-between our weather recording intervals... More about our weather records

Malatya Weather History for the Previous 24 Hours

Scroll right to see more
 ConditionsComfort  
Time TempWeatherWind HumidityBarometerVisibility
2:20 pm
Fri, May 14
88 °FPassing clouds.9 mph15%29.95 "HgN/A
1:50 pm86 °FPassing clouds.9 mph13%29.95 "HgN/A
1:20 pm84 °FPassing clouds.8 mph14%29.98 "HgN/A
12:50 pm86 °FPassing clouds.8 mph14%29.98 "HgN/A
12:20 pm84 °FSunny.5 mph13%29.98 "Hg10 mi
11:50 am84 °FPassing clouds.6 mph15%30.01 "HgN/A
11:20 am81 °FSunny.5 mph18%30.01 "Hg10 mi
10:50 am79 °FSunny.3 mph20%30.01 "Hg10 mi
10:20 am77 °FPassing clouds.3 mph21%30.04 "HgN/A
9:50 am75 °FSunny.5 mph25%30.04 "Hg10 mi
9:20 am73 °FSunny.5 mph25%30.04 "Hg10 mi
8:50 am72 °FPassing clouds.3 mph27%30.04 "HgN/A
8:20 am68 °FSunny.2 mph30%30.04 "Hg10 mi
7:50 am66 °FSunny.2 mph30%30.01 "Hg10 mi
7:20 am63 °FSunny.1 mph39%30.01 "Hg10 mi
6:50 am55 °FSunny.2 mph51%30.01 "Hg10 mi
6:20 am50 °FSunny.5 mph58%29.98 "Hg10 mi
5:50 am45 °FPassing clouds.3 mph61%29.98 "HgN/A
5:20 am41 °FSunny.6 mph76%29.98 "Hg10 mi
4:50 am43 °FClear.7 mph71%29.95 "Hg10 mi
4:20 am45 °FClear.7 mph66%29.95 "Hg10 mi
3:50 am46 °FClear.8 mph62%29.95 "Hg10 mi
3:20 am48 °FClear.6 mph54%29.95 "Hg10 mi
2:50 am48 °FClear.5 mph58%29.95 "Hg10 mi
2:20 am46 °FClear.6 mph62%29.95 "Hg10 mi
1:50 am46 °FClear.5 mph66%29.95 "Hg10 mi
1:20 am50 °FClear.5 mph54%29.95 "Hg10 mi
12:50 am54 °FClear.2 mph47%29.95 "Hg10 mi
12:20 am59 °FClear.2 mph39%29.95 "Hg10 mi
11:50 pm
Thu, May 13
59 °FPassing clouds.3 mph39%29.92 "HgN/A
11:20 pm59 °FClear.10 mph39%29.92 "Hg10 mi
10:50 pm59 °FClear.10 mph39%29.92 "Hg10 mi
10:20 pm61 °FClear.8 mph36%29.92 "Hg10 mi
9:50 pm59 °FClear.9 mph42%29.92 "Hg10 mi
9:20 pm61 °FClear.10 mph42%29.92 "Hg10 mi
8:50 pm61 °FClear.7 mph42%29.92 "Hg10 mi
8:20 pm63 °FClear.8 mph39%29.92 "Hg10 mi
7:50 pm66 °FClear.7 mph35%29.89 "Hg10 mi
6:50 pm79 °FSunny.8 mph20%29.89 "Hg10 mi
6:20 pm82 °FSunny.12 mph15%29.89 "Hg10 mi
5:50 pm84 °FSunny.12 mph14%29.89 "Hg10 mi
5:20 pm86 °FSunny.16 mph12%29.89 "Hg10 mi
4:50 pm88 °FSunny.17 mph12%29.89 "Hg10 mi
4:20 pm88 °FSunny.21 mph12%29.89 "Hg10 mi
3:50 pm86 °FPassing clouds.14 mph13%29.89 "HgN/A
3:20 pm88 °FPassing clouds.14 mph13%29.89 "HgN/A
Weather by CustomWeather, © 2021

See weather overview